Mc Connell Air Force Base
KIAB : rendu visible

Aérodrome :











RETROUVEZ-NOUS SUR...

 
LOGIN :

S'inscrire | Disclaimer

   EN    FR    IT 

 









Légende :    VFR   VFR Marginal   IFR   IFR Intensif   IFR Très Intensif
Visi : 
Plafond : 
>= 8 km
>= 3000ft
5 à 8 km
1000 à 3000 ft
1500m à 5 km
500 à 1000 ft
800 à 1500m
200 à 500 ft
< 800m
< 200 ft
Symboles :   Orages  Brouillard  Fortes neiges  Fortes précipitations  Vent > 20 kt






- Altitude de l'aérodrome : 1371 ft
- Code IATA : IAB


KIAB - Mc Connell Air Force Base

DERNIER METAR :
  • 221231Z AUTO 17015G22KT 9SM -SN OVC006 01/01 A2993 RMK AO2 RAE24SNB24 SLP148 $

METARs EXPIRÉS :
  • 221156Z COR 17014KT 10SM -RA OVC005 01/01 A2994 RMK AO2 SNE41UPB41E42RAB42 SLP151 P0007 60019 70019 4/000 T00070006 10026 20005 57031 $ COR 1200
  • 221056Z AUTO 16014G23KT 5SM -SN BR OVC005 01/00 A2996 RMK AO2 PK WND 19027/35 SNE32UPB32E36RAB36E45SNB45 SLP158 P0002 T00050004 $
  • 221036Z AUTO 16016G25KT 4SM -UP OVC005 01/01 A2997 RMK AO2 SNE32UPB32 SLP161 $
  • 220956Z AUTO 16020G26KT 2 1/2SM -SN BR OVC005 01/01 A3000 RMK AO2 PK WND 19029/0856 VIS 2 1/2V3 SNE12RAB12E17SNB17 SLP172 P0002 T00060005 $
  • 220951Z AUTO 17020G24KT 2 3/4SM -SN OVC005 01/01 A3000 RMK AO2 VIS 2 3/4V4 SNE12RAB12E17SNB17 SLP172 $
  • 220936Z AUTO 17019G23KT 4SM -SN BR OVC005 01/01 A3001 RMK AO2 SNE12RAB12E17SNB17 SLP175 $

TAF TAF KIAB
Valide du 22 à 10h jusqu'au 23 à 16h UTC


221000Z 2210/2316 17015G25KT 4800 -SN BKN007 OVC012 650079 QNH2988INS
TEMPO 2211/2215 17025G35KT 3200 -SN OVC004 650049
BECMG 2216/2217 17015G25KT 6000 -SHRA SCT005 BKN010 OVC015 650706 QNH2984INS
BECMG 2302/2303 VRB06KT 4800 BR BKN005 OVC010 QNH2988INS
BECMG 2315/2316 33009KT 8000 -SHRA BKN010 OVC015 QNH2995INS TX03/2221Z TN00/2210Z



MET'MAP, la Météo Aéronautique d'un coup d'oeil ! - Copyright ORBIFLY Décembre 2007 - Disclaimer

ORBIFLY MET'MAP TEAM :

Programmation & Développement : Alexandra Zaïnal
Sur une idée originale de : Baudouin d'Aumeries
Assistance à la programmation : Marc-Olivier Méhu
Soutien technique & logistique : Manuel Goepfert

Contact : metmap@orbifly.com




SOURCES & CREDITS :

   NOAA       Earth
Advisory